sensor_id;sensor_type;location;lat;lon;timestamp;noise_LAeq;noise_LA_min;noise_LA_max;noise_LA01;noise_LA95
46393;Laerm;32099;53.588;10.176;2023-07-22T00:00:14;35.59;33.24;49.99;;
46393;Laerm;32099;53.588;10.176;2023-07-22T00:02:40;34.44;32.53;44.32;;
46393;Laerm;32099;53.588;10.176;2023-07-22T00:05:06;36.76;32.83;50.04;;
46393;Laerm;32099;53.588;10.176;2023-07-22T00:07:31;34.96;32.73;42.08;;
46393;Laerm;32099;53.588;10.176;2023-07-22T00:09:56;35.55;32.89;53.76;;
46393;Laerm;32099;53.588;10.176;2023-07-22T00:12:22;35.33;32.60;50.24;;
46393;Laerm;32099;53.588;10.176;2023-07-22T00:14:51;36.18;32.87;42.72;;
46393;Laerm;32099;53.588;10.176;2023-07-22T00:17:16;35.48;33.06;48.19;;
46393;Laerm;32099;53.588;10.176;2023-07-22T00:19:41;34.77;32.78;56.77;;
46393;Laerm;32099;53.588;10.176;2023-07-22T00:22:07;35.55;32.74;48.37;;
46393;Laerm;32099;53.588;10.176;2023-07-22T00:24:32;36.25;33.07;47.58;;
46393;Laerm;32099;53.588;10.176;2023-07-22T00:26:57;35.51;32.65;43.68;;
46393;Laerm;32099;53.588;10.176;2023-07-22T00:29:22;34.52;32.71;43.89;;
46393;Laerm;32099;53.588;10.176;2023-07-22T00:31:48;34.46;32.45;46.56;;
46393;Laerm;32099;53.588;10.176;2023-07-22T00:34:14;34.76;32.11;42.07;;
46393;Laerm;32099;53.588;10.176;2023-07-22T00:36:39;35.57;32.84;44.54;;
46393;Laerm;32099;53.588;10.176;2023-07-22T00:39:04;40.70;33.38;68.11;;
46393;Laerm;32099;53.588;10.176;2023-07-22T00:41:30;37.79;33.29;63.62;;
46393;Laerm;32099;53.588;10.176;2023-07-22T00:43:56;37.88;33.14;46.72;;
46393;Laerm;32099;53.588;10.176;2023-07-22T00:46:21;36.53;33.12;50.19;;
46393;Laerm;32099;53.588;10.176;2023-07-22T00:48:47;35.13;32.93;46.14;;
46393;Laerm;32099;53.588;10.176;2023-07-22T00:51:13;36.18;33.49;43.88;;
46393;Laerm;32099;53.588;10.176;2023-07-22T00:53:39;37.22;33.18;61.14;;
46393;Laerm;32099;53.588;10.176;2023-07-22T00:56:04;35.40;32.84;45.67;;
46393;Laerm;32099;53.588;10.176;2023-07-22T00:58:30;37.92;32.53;50.24;;
46393;Laerm;32099;53.588;10.176;2023-07-22T01:00:56;34.91;32.60;41.01;;
46393;Laerm;32099;53.588;10.176;2023-07-22T01:03:21;45.19;33.01;63.48;;
46393;Laerm;32099;53.588;10.176;2023-07-22T01:05:48;36.68;33.13;48.00;;
46393;Laerm;32099;53.588;10.176;2023-07-22T01:08:14;35.41;32.47;44.41;;
46393;Laerm;32099;53.588;10.176;2023-07-22T01:10:39;35.56;32.67;50.13;;
46393;Laerm;32099;53.588;10.176;2023-07-22T01:13:05;34.73;32.47;45.04;;
46393;Laerm;32099;53.588;10.176;2023-07-22T01:15:30;34.58;32.65;44.24;;
46393;Laerm;32099;53.588;10.176;2023-07-22T01:17:56;34.97;32.81;44.34;;
46393;Laerm;32099;53.588;10.176;2023-07-22T01:20:27;46.84;33.62;65.99;;
46393;Laerm;32099;53.588;10.176;2023-07-22T01:22:54;34.51;32.45;42.38;;
46393;Laerm;32099;53.588;10.176;2023-07-22T01:25:20;33.71;32.12;46.81;;
46393;Laerm;32099;53.588;10.176;2023-07-22T01:27:47;34.65;32.40;45.10;;
46393;Laerm;32099;53.588;10.176;2023-07-22T01:30:12;33.85;31.94;46.48;;
46393;Laerm;32099;53.588;10.176;2023-07-22T01:32:39;34.00;32.22;43.89;;
46393;Laerm;32099;53.588;10.176;2023-07-22T01:35:05;34.71;32.35;45.32;;
46393;Laerm;32099;53.588;10.176;2023-07-22T01:37:33;48.10;32.60;67.24;;
46393;Laerm;32099;53.588;10.176;2023-07-22T01:39:58;34.03;32.10;42.26;;
46393;Laerm;32099;53.588;10.176;2023-07-22T01:42:23;35.50;32.66;44.54;;
46393;Laerm;32099;53.588;10.176;2023-07-22T01:44:49;35.49;32.96;46.99;;
46393;Laerm;32099;53.588;10.176;2023-07-22T01:47:14;35.10;32.92;46.47;;
46393;Laerm;32099;53.588;10.176;2023-07-22T01:49:39;35.34;32.64;57.99;;
46393;Laerm;32099;53.588;10.176;2023-07-22T01:52:05;34.97;32.86;54.11;;
46393;Laerm;32099;53.588;10.176;2023-07-22T01:54:30;35.06;32.84;47.31;;
46393;Laerm;32099;53.588;10.176;2023-07-22T01:56:55;36.60;33.08;46.60;;
46393;Laerm;32099;53.588;10.176;2023-07-22T01:59:21;36.42;33.08;49.21;;
46393;Laerm;32099;53.588;10.176;2023-07-22T02:01:46;37.46;33.00;48.81;;
46393;Laerm;32099;53.588;10.176;2023-07-22T02:04:12;35.14;32.72;42.94;;
46393;Laerm;32099;53.588;10.176;2023-07-22T02:06:38;35.01;32.40;48.14;;
46393;Laerm;32099;53.588;10.176;2023-07-22T02:09:03;35.00;32.59;40.20;;
46393;Laerm;32099;53.588;10.176;2023-07-22T02:11:37;35.65;32.62;61.34;;
46393;Laerm;32099;53.588;10.176;2023-07-22T02:14:02;34.25;32.21;41.73;;
46393;Laerm;32099;53.588;10.176;2023-07-22T02:16:32;35.72;32.54;47.85;;
46393;Laerm;32099;53.588;10.176;2023-07-22T02:18:57;34.66;32.77;47.23;;
46393;Laerm;32099;53.588;10.176;2023-07-22T02:21:22;36.82;32.82;58.12;;
46393;Laerm;32099;53.588;10.176;2023-07-22T02:23:48;42.66;32.89;58.84;;
46393;Laerm;32099;53.588;10.176;2023-07-22T02:26:13;44.36;32.81;58.96;;
46393;Laerm;32099;53.588;10.176;2023-07-22T02:28:40;44.50;32.66;60.37;;
46393;Laerm;32099;53.588;10.176;2023-07-22T02:31:05;42.68;33.04;60.65;;
46393;Laerm;32099;53.588;10.176;2023-07-22T02:33:32;40.31;32.76;59.83;;
46393;Laerm;32099;53.588;10.176;2023-07-22T02:35:57;40.20;32.96;59.87;;
46393;Laerm;32099;53.588;10.176;2023-07-22T02:38:23;38.79;33.13;59.49;;
46393;Laerm;32099;53.588;10.176;2023-07-22T02:40:48;44.10;33.12;65.26;;
46393;Laerm;32099;53.588;10.176;2023-07-22T02:43:13;36.00;33.04;47.90;;
46393;Laerm;32099;53.588;10.176;2023-07-22T02:45:39;37.70;33.61;50.85;;
46393;Laerm;32099;53.588;10.176;2023-07-22T02:48:04;36.56;33.36;47.30;;
46393;Laerm;32099;53.588;10.176;2023-07-22T02:50:31;35.06;32.92;44.06;;
46393;Laerm;32099;53.588;10.176;2023-07-22T02:52:56;37.28;33.21;55.92;;
46393;Laerm;32099;53.588;10.176;2023-07-22T02:55:22;47.67;33.08;63.57;;
46393;Laerm;32099;53.588;10.176;2023-07-22T02:57:48;49.11;32.92;67.94;;
46393;Laerm;32099;53.588;10.176;2023-07-22T03:00:16;49.30;33.26;68.62;;
46393;Laerm;32099;53.588;10.176;2023-07-22T03:02:55;44.27;33.53;65.08;;
46393;Laerm;32099;53.588;10.176;2023-07-22T03:05:26;54.85;33.21;77.30;;
46393;Laerm;32099;53.588;10.176;2023-07-22T03:07:53;50.39;32.85;71.01;;
46393;Laerm;32099;53.588;10.176;2023-07-22T03:10:18;51.45;33.13;74.17;;
46393;Laerm;32099;53.588;10.176;2023-07-22T03:12:44;51.18;33.35;73.92;;
46393;Laerm;32099;53.588;10.176;2023-07-22T03:15:09;49.64;33.23;72.36;;
46393;Laerm;32099;53.588;10.176;2023-07-22T03:17:35;46.68;33.74;62.46;;
46393;Laerm;32099;53.588;10.176;2023-07-22T03:20:02;42.95;33.91;63.29;;
46393;Laerm;32099;53.588;10.176;2023-07-22T03:22:30;40.92;33.83;59.19;;
46393;Laerm;32099;53.588;10.176;2023-07-22T03:24:56;49.51;34.64;70.62;;
46393;Laerm;32099;53.588;10.176;2023-07-22T03:27:21;40.79;34.02;57.20;;
46393;Laerm;32099;53.588;10.176;2023-07-22T03:29:46;45.16;33.60;64.77;;
46393;Laerm;32099;53.588;10.176;2023-07-22T03:32:12;43.56;34.04;66.19;;
46393;Laerm;32099;53.588;10.176;2023-07-22T03:34:37;44.64;33.89;66.08;;
46393;Laerm;32099;53.588;10.176;2023-07-22T03:37:02;46.03;33.93;67.83;;
46393;Laerm;32099;53.588;10.176;2023-07-22T03:39:28;41.33;34.84;58.77;;
46393;Laerm;32099;53.588;10.176;2023-07-22T03:41:53;41.70;33.45;65.01;;
46393;Laerm;32099;53.588;10.176;2023-07-22T03:44:18;46.52;33.92;68.70;;
46393;Laerm;32099;53.588;10.176;2023-07-22T03:46:43;39.87;33.98;64.56;;
46393;Laerm;32099;53.588;10.176;2023-07-22T03:49:09;43.17;33.99;66.46;;
46393;Laerm;32099;53.588;10.176;2023-07-22T03:51:34;40.30;33.43;59.65;;
46393;Laerm;32099;53.588;10.176;2023-07-22T03:54:00;41.27;33.52;59.01;;
46393;Laerm;32099;53.588;10.176;2023-07-22T03:56:25;38.85;33.42;54.61;;
46393;Laerm;32099;53.588;10.176;2023-07-22T03:58:51;37.64;33.31;54.52;;
46393;Laerm;32099;53.588;10.176;2023-07-22T04:01:17;38.29;33.91;53.49;;
46393;Laerm;32099;53.588;10.176;2023-07-22T04:03:42;38.31;34.26;52.69;;
46393;Laerm;32099;53.588;10.176;2023-07-22T04:06:08;49.37;34.48;69.58;;
46393;Laerm;32099;53.588;10.176;2023-07-22T04:08:33;50.57;34.48;61.64;;
46393;Laerm;32099;53.588;10.176;2023-07-22T04:10:58;46.25;34.41;69.59;;
46393;Laerm;32099;53.588;10.176;2023-07-22T04:13:25;46.90;34.46;62.38;;
46393;Laerm;32099;53.588;10.176;2023-07-22T04:15:51;47.84;34.67;63.44;;
46393;Laerm;32099;53.588;10.176;2023-07-22T04:18:18;40.38;34.15;56.56;;
46393;Laerm;32099;53.588;10.176;2023-07-22T04:20:44;40.63;34.00;68.01;;
46393;Laerm;32099;53.588;10.176;2023-07-22T04:23:09;39.20;34.60;54.89;;
46393;Laerm;32099;53.588;10.176;2023-07-22T04:25:39;52.28;35.93;64.99;;
46393;Laerm;32099;53.588;10.176;2023-07-22T04:28:04;41.85;36.07;53.15;;
46393;Laerm;32099;53.588;10.176;2023-07-22T04:30:30;38.58;34.57;46.57;;
46393;Laerm;32099;53.588;10.176;2023-07-22T04:32:55;53.92;36.14;66.10;;
46393;Laerm;32099;53.588;10.176;2023-07-22T04:35:20;42.15;33.99;58.22;;
46393;Laerm;32099;53.588;10.176;2023-07-22T04:37:46;39.43;33.99;55.75;;
46393;Laerm;32099;53.588;10.176;2023-07-22T04:40:12;40.97;34.19;59.29;;
46393;Laerm;32099;53.588;10.176;2023-07-22T04:42:44;40.79;34.55;59.53;;
46393;Laerm;32099;53.588;10.176;2023-07-22T04:45:10;52.81;36.09;69.90;;
46393;Laerm;32099;53.588;10.176;2023-07-22T04:47:37;40.02;33.75;54.98;;
46393;Laerm;32099;53.588;10.176;2023-07-22T04:50:04;44.54;34.10;63.39;;
46393;Laerm;32099;53.588;10.176;2023-07-22T04:52:30;36.53;33.86;45.91;;
46393;Laerm;32099;53.588;10.176;2023-07-22T04:54:56;51.74;35.26;66.64;;
46393;Laerm;32099;53.588;10.176;2023-07-22T04:57:21;38.71;33.66;50.34;;
46393;Laerm;32099;53.588;10.176;2023-07-22T04:59:46;49.94;34.40;68.68;;
46393;Laerm;32099;53.588;10.176;2023-07-22T05:02:12;39.41;33.71;56.13;;
46393;Laerm;32099;53.588;10.176;2023-07-22T05:04:38;38.91;34.84;55.06;;
46393;Laerm;32099;53.588;10.176;2023-07-22T05:07:03;39.44;34.26;51.28;;
46393;Laerm;32099;53.588;10.176;2023-07-22T05:09:29;38.44;34.03;47.13;;
46393;Laerm;32099;53.588;10.176;2023-07-22T05:11:54;51.41;35.41;65.63;;
46393;Laerm;32099;53.588;10.176;2023-07-22T05:14:20;41.38;34.42;52.98;;
46393;Laerm;32099;53.588;10.176;2023-07-22T05:16:45;48.85;34.28;67.46;;
46393;Laerm;32099;53.588;10.176;2023-07-22T05:19:10;39.04;34.03;56.39;;
46393;Laerm;32099;53.588;10.176;2023-07-22T05:21:36;38.97;34.22;53.89;;
46393;Laerm;32099;53.588;10.176;2023-07-22T05:24:01;46.91;34.03;66.74;;
46393;Laerm;32099;53.588;10.176;2023-07-22T05:26:26;47.50;35.52;63.99;;
46393;Laerm;32099;53.588;10.176;2023-07-22T05:28:52;51.02;34.31;69.39;;
46393;Laerm;32099;53.588;10.176;2023-07-22T05:31:17;38.63;34.39;46.82;;
46393;Laerm;32099;53.588;10.176;2023-07-22T05:33:42;36.37;33.54;47.01;;
46393;Laerm;32099;53.588;10.176;2023-07-22T05:36:08;37.91;33.49;47.47;;
46393;Laerm;32099;53.588;10.176;2023-07-22T05:38:33;47.49;33.65;65.39;;
46393;Laerm;32099;53.588;10.176;2023-07-22T05:40:58;47.36;34.18;65.82;;
46393;Laerm;32099;53.588;10.176;2023-07-22T05:43:24;38.53;32.99;53.49;;
46393;Laerm;32099;53.588;10.176;2023-07-22T05:45:49;44.38;33.06;62.96;;
46393;Laerm;32099;53.588;10.176;2023-07-22T05:48:14;44.86;33.35;64.02;;
46393;Laerm;32099;53.588;10.176;2023-07-22T05:50:40;39.84;33.54;57.03;;
46393;Laerm;32099;53.588;10.176;2023-07-22T05:53:06;41.12;32.91;60.05;;
46393;Laerm;32099;53.588;10.176;2023-07-22T05:55:31;47.85;34.49;64.83;;
46393;Laerm;32099;53.588;10.176;2023-07-22T05:57:57;46.24;33.60;63.60;;
46393;Laerm;32099;53.588;10.176;2023-07-22T06:00:22;37.49;33.89;49.75;;
46393;Laerm;32099;53.588;10.176;2023-07-22T06:02:48;50.23;33.02;70.68;;
46393;Laerm;32099;53.588;10.176;2023-07-22T06:05:13;36.18;32.90;44.82;;
46393;Laerm;32099;53.588;10.176;2023-07-22T06:07:39;48.03;32.51;67.72;;
46393;Laerm;32099;53.588;10.176;2023-07-22T06:10:05;44.00;32.58;62.32;;
46393;Laerm;32099;53.588;10.176;2023-07-22T06:12:31;37.41;32.59;54.95;;
46393;Laerm;32099;53.588;10.176;2023-07-22T06:14:56;42.33;32.03;56.41;;
46393;Laerm;32099;53.588;10.176;2023-07-22T06:17:21;36.14;32.42;48.90;;
46393;Laerm;32099;53.588;10.176;2023-07-22T06:19:47;46.55;32.60;65.07;;
46393;Laerm;32099;53.588;10.176;2023-07-22T06:22:12;47.64;33.86;66.91;;
46393;Laerm;32099;53.588;10.176;2023-07-22T06:24:37;39.33;33.17;54.03;;
46393;Laerm;32099;53.588;10.176;2023-07-22T06:27:03;49.50;33.61;67.13;;
46393;Laerm;32099;53.588;10.176;2023-07-22T06:29:28;43.59;32.69;60.90;;
46393;Laerm;32099;53.588;10.176;2023-07-22T06:31:53;47.98;34.74;67.54;;
46393;Laerm;32099;53.588;10.176;2023-07-22T06:34:18;41.19;34.17;57.36;;
46393;Laerm;32099;53.588;10.176;2023-07-22T06:36:44;48.36;32.95;68.94;;
46393;Laerm;32099;53.588;10.176;2023-07-22T06:39:09;49.52;33.00;67.62;;
46393;Laerm;32099;53.588;10.176;2023-07-22T06:41:34;46.55;32.94;62.91;;
46393;Laerm;32099;53.588;10.176;2023-07-22T06:43:59;48.35;33.40;61.87;;
46393;Laerm;32099;53.588;10.176;2023-07-22T06:46:25;52.89;34.09;70.68;;
46393;Laerm;32099;53.588;10.176;2023-07-22T06:48:50;38.17;33.43;47.22;;
46393;Laerm;32099;53.588;10.176;2023-07-22T06:51:15;47.42;34.08;65.61;;
46393;Laerm;32099;53.588;10.176;2023-07-22T06:53:41;40.22;32.81;60.88;;
46393;Laerm;32099;53.588;10.176;2023-07-22T06:56:06;39.62;32.39;58.11;;
46393;Laerm;32099;53.588;10.176;2023-07-22T06:58:31;46.17;32.49;64.82;;
46393;Laerm;32099;53.588;10.176;2023-07-22T07:00:57;42.44;33.11;71.21;;
46393;Laerm;32099;53.588;10.176;2023-07-22T07:03:22;48.91;33.52;65.40;;
46393;Laerm;32099;53.588;10.176;2023-07-22T07:05:54;40.29;33.24;54.99;;
46393;Laerm;32099;53.588;10.176;2023-07-22T07:08:21;37.23;32.88;46.25;;
46393;Laerm;32099;53.588;10.176;2023-07-22T07:10:46;50.03;32.62;66.93;;
46393;Laerm;32099;53.588;10.176;2023-07-22T07:13:11;44.10;32.38;62.92;;
46393;Laerm;32099;53.588;10.176;2023-07-22T07:15:37;40.01;33.51;54.24;;
46393;Laerm;32099;53.588;10.176;2023-07-22T07:18:02;44.73;32.71;64.68;;
46393;Laerm;32099;53.588;10.176;2023-07-22T07:20:28;36.68;32.62;50.29;;
46393;Laerm;32099;53.588;10.176;2023-07-22T07:22:53;45.01;32.82;63.00;;
46393;Laerm;32099;53.588;10.176;2023-07-22T07:25:18;36.08;32.20;52.36;;
46393;Laerm;32099;53.588;10.176;2023-07-22T07:27:43;50.76;34.05;71.96;;
46393;Laerm;32099;53.588;10.176;2023-07-22T07:30:09;53.50;34.16;67.58;;
46393;Laerm;32099;53.588;10.176;2023-07-22T07:32:35;48.50;34.20;69.87;;
46393;Laerm;32099;53.588;10.176;2023-07-22T07:35:00;48.90;32.53;64.16;;
46393;Laerm;32099;53.588;10.176;2023-07-22T07:37:26;49.76;33.61;72.74;;
46393;Laerm;32099;53.588;10.176;2023-07-22T07:39:51;41.96;32.82;54.47;;
46393;Laerm;32099;53.588;10.176;2023-07-22T07:42:17;42.34;33.11;56.55;;
46393;Laerm;32099;53.588;10.176;2023-07-22T07:44:42;57.14;33.60;73.67;;
46393;Laerm;32099;53.588;10.176;2023-07-22T07:47:07;49.52;33.48;68.67;;
46393;Laerm;32099;53.588;10.176;2023-07-22T07:49:33;48.54;33.02;65.98;;
46393;Laerm;32099;53.588;10.176;2023-07-22T07:51:58;45.74;33.78;63.11;;
46393;Laerm;32099;53.588;10.176;2023-07-22T07:54:24;48.25;33.19;65.36;;
46393;Laerm;32099;53.588;10.176;2023-07-22T07:56:49;48.55;33.06;66.27;;
46393;Laerm;32099;53.588;10.176;2023-07-22T07:59:15;51.30;35.60;66.71;;
46393;Laerm;32099;53.588;10.176;2023-07-22T08:01:40;48.23;34.35;65.99;;
46393;Laerm;32099;53.588;10.176;2023-07-22T08:04:07;48.40;33.52;67.03;;
46393;Laerm;32099;53.588;10.176;2023-07-22T08:06:33;48.17;33.13;64.55;;
46393;Laerm;32099;53.588;10.176;2023-07-22T08:08:58;53.33;34.51;69.12;;
46393;Laerm;32099;53.588;10.176;2023-07-22T08:11:24;38.67;34.06;46.97;;
46393;Laerm;32099;53.588;10.176;2023-07-22T08:13:49;46.67;34.01;63.69;;
46393;Laerm;32099;53.588;10.176;2023-07-22T08:16:16;47.72;33.52;65.43;;
46393;Laerm;32099;53.588;10.176;2023-07-22T08:18:41;49.71;35.98;65.09;;
46393;Laerm;32099;53.588;10.176;2023-07-22T08:21:07;47.80;39.72;63.11;;
46393;Laerm;32099;53.588;10.176;2023-07-22T08:23:33;53.65;41.41;72.11;;
46393;Laerm;32099;53.588;10.176;2023-07-22T08:25:58;48.27;34.71;64.37;;
46393;Laerm;32099;53.588;10.176;2023-07-22T08:28:24;51.28;35.35;67.87;;
46393;Laerm;32099;53.588;10.176;2023-07-22T08:30:50;51.39;39.65;69.64;;
46393;Laerm;32099;53.588;10.176;2023-07-22T08:33:15;48.48;37.11;67.06;;
46393;Laerm;32099;53.588;10.176;2023-07-22T08:35:41;44.91;33.96;62.02;;
46393;Laerm;32099;53.588;10.176;2023-07-22T08:38:07;48.12;35.00;64.08;;
46393;Laerm;32099;53.588;10.176;2023-07-22T08:40:38;39.44;34.61;50.82;;
46393;Laerm;32099;53.588;10.176;2023-07-22T08:43:04;40.78;35.56;54.59;;
46393;Laerm;32099;53.588;10.176;2023-07-22T08:45:32;40.08;35.19;58.77;;
46393;Laerm;32099;53.588;10.176;2023-07-22T08:47:58;52.91;36.19;69.56;;
46393;Laerm;32099;53.588;10.176;2023-07-22T08:50:29;48.74;34.05;69.01;;
46393;Laerm;32099;53.588;10.176;2023-07-22T08:52:55;54.09;35.89;72.22;;
46393;Laerm;32099;53.588;10.176;2023-07-22T08:55:23;40.52;35.08;48.02;;
46393;Laerm;32099;53.588;10.176;2023-07-22T08:57:49;41.42;34.42;57.35;;
46393;Laerm;32099;53.588;10.176;2023-07-22T09:00:15;40.92;34.62;50.16;;
46393;Laerm;32099;53.588;10.176;2023-07-22T09:02:41;54.02;37.79;69.31;;
46393;Laerm;32099;53.588;10.176;2023-07-22T09:05:07;52.70;35.76;67.51;;
46393;Laerm;32099;53.588;10.176;2023-07-22T09:07:34;39.07;36.17;49.99;;
46393;Laerm;32099;53.588;10.176;2023-07-22T09:10:00;47.38;34.70;60.49;;
46393;Laerm;32099;53.588;10.176;2023-07-22T09:12:26;49.79;36.19;66.44;;
46393;Laerm;32099;53.588;10.176;2023-07-22T09:14:52;50.40;32.58;64.89;;
46393;Laerm;32099;53.588;10.176;2023-07-22T09:17:17;51.37;33.80;65.36;;
46393;Laerm;32099;53.588;10.176;2023-07-22T09:19:42;50.29;35.16;67.93;;
46393;Laerm;32099;53.588;10.176;2023-07-22T09:22:08;48.41;33.40;66.67;;
46393;Laerm;32099;53.588;10.176;2023-07-22T09:24:33;50.98;36.02;66.68;;
46393;Laerm;32099;53.588;10.176;2023-07-22T09:26:58;47.39;35.09;66.22;;
46393;Laerm;32099;53.588;10.176;2023-07-22T09:29:34;50.70;36.32;67.70;;
46393;Laerm;32099;53.588;10.176;2023-07-22T09:32:00;43.92;33.33;64.08;;
46393;Laerm;32099;53.588;10.176;2023-07-22T09:34:26;44.88;34.00;63.04;;
46393;Laerm;32099;53.588;10.176;2023-07-22T09:36:56;51.68;34.94;67.77;;
46393;Laerm;32099;53.588;10.176;2023-07-22T09:39:22;53.14;35.14;70.32;;
46393;Laerm;32099;53.588;10.176;2023-07-22T09:41:48;49.94;33.85;67.06;;
46393;Laerm;32099;53.588;10.176;2023-07-22T09:44:13;45.96;33.89;60.20;;
46393;Laerm;32099;53.588;10.176;2023-07-22T09:46:39;37.47;33.20;48.94;;
46393;Laerm;32099;53.588;10.176;2023-07-22T09:49:07;39.47;33.45;50.97;;
46393;Laerm;32099;53.588;10.176;2023-07-22T09:51:35;50.54;34.25;66.39;;
46393;Laerm;32099;53.588;10.176;2023-07-22T09:54:02;44.55;34.30;64.45;;
46393;Laerm;32099;53.588;10.176;2023-07-22T09:56:28;45.34;34.24;62.99;;
46393;Laerm;32099;53.588;10.176;2023-07-22T09:58:53;47.72;34.63;66.11;;
46393;Laerm;32099;53.588;10.176;2023-07-22T10:01:20;48.63;36.36;66.56;;
46393;Laerm;32099;53.588;10.176;2023-07-22T10:03:53;41.75;33.71;60.03;;
46393;Laerm;32099;53.588;10.176;2023-07-22T10:06:24;49.20;33.59;65.29;;
46393;Laerm;32099;53.588;10.176;2023-07-22T10:08:51;42.76;33.36;67.87;;
46393;Laerm;32099;53.588;10.176;2023-07-22T10:11:17;44.79;35.66;60.24;;
46393;Laerm;32099;53.588;10.176;2023-07-22T10:13:43;48.06;34.84;63.50;;
46393;Laerm;32099;53.588;10.176;2023-07-22T10:16:09;45.99;34.14;61.82;;
46393;Laerm;32099;53.588;10.176;2023-07-22T10:18:35;48.93;34.05;68.25;;
46393;Laerm;32099;53.588;10.176;2023-07-22T10:21:02;48.94;33.61;65.03;;
46393;Laerm;32099;53.588;10.176;2023-07-22T10:23:29;51.06;34.23;64.88;;
46393;Laerm;32099;53.588;10.176;2023-07-22T10:25:56;51.71;33.27;68.63;;
46393;Laerm;32099;53.588;10.176;2023-07-22T10:28:22;49.81;33.78;65.52;;
46393;Laerm;32099;53.588;10.176;2023-07-22T10:30:49;52.61;34.60;67.56;;
46393;Laerm;32099;53.588;10.176;2023-07-22T10:33:14;53.95;36.63;66.42;;
46393;Laerm;32099;53.588;10.176;2023-07-22T10:35:41;50.55;34.78;66.46;;
46393;Laerm;32099;53.588;10.176;2023-07-22T10:38:15;46.00;33.68;63.20;;
46393;Laerm;32099;53.588;10.176;2023-07-22T10:40:45;49.79;33.76;64.10;;
46393;Laerm;32099;53.588;10.176;2023-07-22T10:43:11;47.11;34.64;65.22;;
46393;Laerm;32099;53.588;10.176;2023-07-22T10:45:41;52.22;36.16;66.24;;
46393;Laerm;32099;53.588;10.176;2023-07-22T10:48:09;50.03;34.40;68.80;;
46393;Laerm;32099;53.588;10.176;2023-07-22T10:50:42;50.06;36.40;67.44;;
46393;Laerm;32099;53.588;10.176;2023-07-22T10:53:21;44.22;35.88;61.15;;
46393;Laerm;32099;53.588;10.176;2023-07-22T10:56:15;39.09;35.33;47.62;;
46393;Laerm;32099;53.588;10.176;2023-07-22T11:01:43;53.26;34.61;71.11;;
46393;Laerm;32099;53.588;10.176;2023-07-22T11:14:32;53.29;35.80;67.25;;
46393;Laerm;32099;53.588;10.176;2023-07-22T11:16:59;47.88;33.62;64.91;;
46393;Laerm;32099;53.588;10.176;2023-07-22T11:19:25;51.03;33.15;73.13;;
46393;Laerm;32099;53.588;10.176;2023-07-22T11:21:53;50.66;35.26;69.45;;
46393;Laerm;32099;53.588;10.176;2023-07-22T11:24:19;46.60;34.75;65.72;;
46393;Laerm;32099;53.588;10.176;2023-07-22T11:26:46;50.58;35.98;69.90;;
46393;Laerm;32099;53.588;10.176;2023-07-22T11:29:13;50.44;37.73;71.39;;
46393;Laerm;32099;53.588;10.176;2023-07-22T11:31:40;40.18;34.45;54.55;;
46393;Laerm;32099;53.588;10.176;2023-07-22T11:34:10;40.52;32.99;50.98;;
46393;Laerm;32099;53.588;10.176;2023-07-22T11:36:36;48.46;34.31;66.72;;
46393;Laerm;32099;53.588;10.176;2023-07-22T11:39:06;49.81;35.69;68.22;;
46393;Laerm;32099;53.588;10.176;2023-07-22T11:41:32;47.58;33.50;66.93;;
46393;Laerm;32099;53.588;10.176;2023-07-22T11:44:02;47.24;34.94;63.60;;
46393;Laerm;32099;53.588;10.176;2023-07-22T11:46:34;44.46;33.80;63.82;;
46393;Laerm;32099;53.588;10.176;2023-07-22T11:48:59;38.41;33.95;50.48;;
46393;Laerm;32099;53.588;10.176;2023-07-22T11:51:25;46.91;33.50;66.44;;
46393;Laerm;32099;53.588;10.176;2023-07-22T11:53:51;46.45;33.99;66.48;;
46393;Laerm;32099;53.588;10.176;2023-07-22T11:56:19;53.43;35.38;68.85;;
46393;Laerm;32099;53.588;10.176;2023-07-22T11:58:49;51.92;33.87;68.13;;
46393;Laerm;32099;53.588;10.176;2023-07-22T12:01:14;46.96;33.11;64.84;;
46393;Laerm;32099;53.588;10.176;2023-07-22T12:03:40;51.84;34.68;71.64;;
46393;Laerm;32099;53.588;10.176;2023-07-22T12:06:06;44.27;34.25;61.93;;
46393;Laerm;32099;53.588;10.176;2023-07-22T12:08:32;51.48;34.73;71.45;;
46393;Laerm;32099;53.588;10.176;2023-07-22T12:10:58;48.75;35.08;70.72;;
46393;Laerm;32099;53.588;10.176;2023-07-22T12:13:23;36.11;32.74;46.22;;
46393;Laerm;32099;53.588;10.176;2023-07-22T12:16:02;37.22;32.36;50.24;;
46393;Laerm;32099;53.588;10.176;2023-07-22T12:18:28;37.39;32.62;53.64;;
46393;Laerm;32099;53.588;10.176;2023-07-22T12:21:05;51.62;32.32;66.46;;
46393;Laerm;32099;53.588;10.176;2023-07-22T12:23:30;40.56;32.28;59.31;;
46393;Laerm;32099;53.588;10.176;2023-07-22T12:25:56;51.00;31.94;70.09;;
46393;Laerm;32099;53.588;10.176;2023-07-22T12:28:22;49.32;33.55;67.91;;
46393;Laerm;32099;53.588;10.176;2023-07-22T12:30:47;45.99;33.84;63.14;;
46393;Laerm;32099;53.588;10.176;2023-07-22T12:33:13;56.66;33.02;76.36;;
46393;Laerm;32099;53.588;10.176;2023-07-22T12:35:39;49.59;32.55;66.31;;
46393;Laerm;32099;53.588;10.176;2023-07-22T12:38:04;53.28;32.55;74.14;;
46393;Laerm;32099;53.588;10.176;2023-07-22T12:40:29;49.10;32.88;68.44;;
46393;Laerm;32099;53.588;10.176;2023-07-22T12:42:55;51.87;32.30;72.83;;
46393;Laerm;32099;53.588;10.176;2023-07-22T12:45:20;50.99;32.62;67.14;;
46393;Laerm;32099;53.588;10.176;2023-07-22T12:47:45;41.78;32.96;59.11;;
46393;Laerm;32099;53.588;10.176;2023-07-22T12:50:10;51.27;31.68;68.86;;
46393;Laerm;32099;53.588;10.176;2023-07-22T12:52:37;49.52;32.03;65.67;;
46393;Laerm;32099;53.588;10.176;2023-07-22T12:55:02;49.85;33.03;64.89;;
46393;Laerm;32099;53.588;10.176;2023-07-22T12:57:27;48.09;34.93;65.87;;
46393;Laerm;32099;53.588;10.176;2023-07-22T12:59:53;51.48;38.89;69.59;;
46393;Laerm;32099;53.588;10.176;2023-07-22T13:02:18;52.26;37.25;74.56;;
46393;Laerm;32099;53.588;10.176;2023-07-22T13:04:44;51.67;39.20;68.28;;
46393;Laerm;32099;53.588;10.176;2023-07-22T13:07:09;47.78;37.53;64.78;;
46393;Laerm;32099;53.588;10.176;2023-07-22T13:09:34;40.17;33.78;47.11;;
46393;Laerm;32099;53.588;10.176;2023-07-22T13:11:59;38.15;33.52;47.81;;
46393;Laerm;32099;53.588;10.176;2023-07-22T13:14:25;37.74;33.59;46.05;;
46393;Laerm;32099;53.588;10.176;2023-07-22T13:16:50;48.95;36.85;67.22;;
46393;Laerm;32099;53.588;10.176;2023-07-22T13:19:15;47.13;38.20;64.05;;
46393;Laerm;32099;53.588;10.176;2023-07-22T13:21:40;50.60;35.81;66.79;;
46393;Laerm;32099;53.588;10.176;2023-07-22T13:24:06;56.34;36.43;90.44;;
46393;Laerm;32099;53.588;10.176;2023-07-22T13:26:31;47.08;36.85;66.78;;
46393;Laerm;32099;53.588;10.176;2023-07-22T13:28:57;45.87;36.02;64.22;;
46393;Laerm;32099;53.588;10.176;2023-07-22T13:31:23;44.46;36.02;61.93;;
46393;Laerm;32099;53.588;10.176;2023-07-22T13:33:48;49.94;35.81;65.17;;
46393;Laerm;32099;53.588;10.176;2023-07-22T13:36:13;60.77;35.90;80.34;;
46393;Laerm;32099;53.588;10.176;2023-07-22T13:38:38;52.40;35.83;76.97;;